Time;durP1;ratioP1;P1;durP2;ratioP2;P2;SDS_P1;SDS_P2;PMS_P1;PMS_P2;Temp;Humidity;BMP_temperature;BMP_pressure;BME280_temperature;BME280_humidity;BME280_pressure;Samples;Min_cycle;Max_cycle;Signal;HPM_P1;HPM_P2
2022/12/28 00:02:07;;;;;;;20.00;7.40;;;;;;;4.42;100.00;101496.66;5125650;27;20038;-73
2022/12/28 00:04:32;;;;;;;22.27;7.43;;;;;;;4.45;100.00;101483.69;5123885;27;20023;-71
2022/12/28 00:06:57;;;;;;;20.33;7.20;;;;;;;4.42;100.00;101499.28;5126644;27;20098;-72
2022/12/28 00:09:24;;;;;;;21.75;7.40;;;;;;;4.42;100.00;101488.81;5123507;27;20470;-73
2022/12/28 00:11:49;;;;;;;21.30;7.63;;;;;;;4.42;100.00;101478.34;5126041;27;20031;-73
2022/12/28 00:14:15;;;;;;;21.38;7.28;;;;;;;4.40;100.00;101466.94;5124001;27;20039;-73
2022/12/28 00:16:41;;;;;;;22.60;7.63;;;;;;;4.37;100.00;101466.81;5124935;27;20035;-73
2022/12/28 00:19:13;;;;;;;20.50;7.70;;;;;;;4.42;100.00;101454.78;5125127;27;20023;-73
2022/12/28 00:21:38;;;;;;;20.85;7.63;;;;;;;4.56;100.00;101450.09;5124472;27;20024;-73
2022/12/28 00:24:04;;;;;;;22.58;8.27;;;;;;;4.51;100.00;101428.97;5125576;27;20029;-73
2022/12/28 00:26:32;;;;;;;21.30;7.78;;;;;;;4.56;100.00;101425.59;5123065;27;20050;-73
2022/12/28 00:28:58;;;;;;;21.80;7.57;;;;;;;4.56;100.00;101408.19;5126156;27;20039;-73
2022/12/28 00:31:23;;;;;;;20.55;7.20;;;;;;;4.61;100.00;101410.97;5119048;27;20093;-72
2022/12/28 00:33:48;;;;;;;20.30;7.25;;;;;;;4.62;100.00;101415.38;5125555;27;20060;-72
2022/12/28 00:36:14;;;;;;;19.50;6.90;;;;;;;4.61;100.00;101416.22;5123973;27;20403;-72
2022/12/28 00:38:40;;;;;;;20.95;7.43;;;;;;;4.58;100.00;101401.28;5124528;27;20031;-73
2022/12/28 00:41:07;;;;;;;22.73;7.43;;;;;;;4.62;100.00;101404.91;5124690;27;20064;-72
2022/12/28 00:43:32;;;;;;;20.30;7.20;;;;;;;4.67;100.00;101414.69;5123180;27;20027;-73
2022/12/28 00:45:58;;;;;;;20.98;7.20;;;;;;;4.72;100.00;101399.19;5126148;27;20038;-72
2022/12/28 00:48:24;;;;;;;20.40;7.13;;;;;;;4.77;100.00;101379.25;5122285;27;20035;-72
2022/12/28 00:50:49;;;;;;;20.42;7.13;;;;;;;4.81;100.00;101394.28;5125543;27;20351;-73
2022/12/28 00:53:15;;;;;;;21.92;7.28;;;;;;;4.81;100.00;101394.28;5104998;27;20015;-72
2022/12/28 00:55:41;;;;;;;19.83;7.00;;;;;;;4.88;100.00;101375.31;5124006;27;20024;-72
2022/12/28 00:58:07;;;;;;;21.20;7.10;;;;;;;4.92;100.00;101368.44;5106509;27;20035;-72
2022/12/28 01:00:33;;;;;;;19.10;6.53;;;;;;;4.98;100.00;101378.25;5122723;27;20057;-72
2022/12/28 01:02:58;;;;;;;20.23;6.80;;;;;;;5.03;100.00;101364.47;5125564;27;20054;-69
2022/12/28 01:05:24;;;;;;;20.15;7.03;;;;;;;5.12;100.00;101358.66;5122251;27;20122;-70
2022/12/28 01:07:49;;;;;;;20.15;7.00;;;;;;;5.13;100.00;101360.47;5125101;27;20034;-69
2022/12/28 01:10:15;;;;;;;20.77;7.00;;;;;;;5.13;100.00;101356.97;5123064;27;20019;-70
2022/12/28 01:12:40;;;;;;;19.38;6.88;;;;;;;5.19;100.00;101359.78;5123892;27;20038;-70
2022/12/28 01:15:08;;;;;;;19.30;6.60;;;;;;;5.18;100.00;101348.38;5124291;27;20545;-69
2022/12/28 01:17:34;;;;;;;19.73;6.82;;;;;;;5.25;100.00;101354.75;5122536;27;20462;-69
2022/12/28 01:19:59;;;;;;;19.23;6.43;;;;;;;5.29;100.00;101345.28;5125626;27;20037;-70
2022/12/28 01:22:25;;;;;;;20.73;6.72;;;;;;;5.32;100.00;101340.13;5121805;27;20028;-70
2022/12/28 01:24:51;;;;;;;20.23;6.45;;;;;;;5.41;100.00;101348.28;5124935;27;20027;-70
2022/12/28 01:27:16;;;;;;;19.08;6.40;;;;;;;5.39;100.00;101337.75;5122743;27;20084;-70
2022/12/28 01:29:42;;;;;;;18.70;6.30;;;;;;;5.37;100.00;101321.09;5123905;27;20044;-70
2022/12/28 01:32:07;;;;;;;20.10;6.57;;;;;;;5.39;100.00;101322.03;5124125;27;20030;-70
2022/12/28 01:34:33;;;;;;;20.40;6.88;;;;;;;5.40;100.00;101317.66;5122378;27;20023;-70
2022/12/28 01:36:58;;;;;;;18.83;6.57;;;;;;;5.42;100.00;101318.63;5125404;27;20439;-70
2022/12/28 01:39:24;;;;;;;19.02;6.25;;;;;;;5.47;100.00;101313.53;5121769;27;20077;-70
2022/12/28 01:41:49;;;;;;;19.10;6.40;;;;;;;5.55;100.00;101318.16;5124543;27;20470;-70
2022/12/28 01:44:14;;;;;;;20.15;6.15;;;;;;;5.51;100.00;101315.41;5122721;27;20106;-71
2022/12/28 01:46:46;;;;;;;20.48;6.05;;;;;;;5.54;100.00;101319.00;5123279;27;20027;-70
2022/12/28 01:49:36;;;;;;;18.60;5.93;;;;;;;5.60;100.00;101305.19;5123221;28;20023;-71
2022/12/28 01:52:09;;;;;;;18.70;5.93;;;;;;;5.65;100.00;101294.84;5118985;28;20107;-70
2022/12/28 01:54:39;;;;;;;17.55;5.80;;;;;;;5.71;100.00;101297.69;5126994;27;20033;-70
2022/12/28 01:57:05;;;;;;;18.50;5.90;;;;;;;5.71;100.00;101281.94;5126839;27;20069;-71
2022/12/28 01:59:35;;;;;;;18.95;5.93;;;;;;;5.74;100.00;101314.41;5129165;27;20428;-70
2022/12/28 02:02:02;;;;;;;18.40;5.70;;;;;;;5.75;100.00;101281.19;5125993;27;20374;-71
2022/12/28 02:04:27;;;;;;;19.20;5.95;;;;;;;5.72;100.00;101268.88;5129098;27;20098;-70
2022/12/28 02:06:54;;;;;;;19.73;5.80;;;;;;;5.73;100.00;101270.63;5107519;28;20070;-70
2022/12/28 02:09:24;;;;;;;18.15;5.60;;;;;;;5.81;100.00;101264.72;5128449;27;20110;-71
2022/12/28 02:11:50;;;;;;;17.77;5.80;;;;;;;5.80;100.00;101249.84;5125972;27;20038;-70
2022/12/28 02:14:17;;;;;;;19.90;6.03;;;;;;;5.85;100.00;101254.38;5127877;27;20040;-70
2022/12/28 02:16:42;;;;;;;17.08;5.30;;;;;;;5.85;100.00;101236.00;5126909;27;20477;-71
2022/12/28 02:19:12;;;;;;;17.67;5.22;;;;;;;5.88;100.00;101236.13;5126586;27;20077;-70
2022/12/28 02:21:59;;;;;;;18.70;5.65;;;;;;;5.91;100.00;101212.59;5127792;27;20019;-70
2022/12/28 02:25:18;;;;;;;18.02;5.65;;;;;;;5.83;100.00;101211.47;5121104;27;20023;-70
2022/12/28 02:27:52;;;;;;;17.75;5.80;;;;;;;5.60;100.00;101213.41;5071150;27;20128;-70
2022/12/28 02:30:18;;;;;;;18.65;6.10;;;;;;;5.54;100.00;101194.88;5125988;27;20389;-71
2022/12/28 02:33:09;;;;;;;18.02;6.03;;;;;;;5.54;100.00;101194.88;5127364;27;20028;-73
2022/12/28 02:35:47;;;;;;;19.40;5.80;;;;;;;5.55;100.00;101201.91;5111102;27;20041;-72
2022/12/28 02:38:47;;;;;;;18.33;6.20;;;;;;;5.54;100.00;101187.00;5126839;27;20035;-73
2022/12/28 02:41:16;;;;;;;17.73;5.95;;;;;;;5.51;100.00;101189.53;5063746;28;20049;-73
2022/12/28 02:43:42;;;;;;;20.58;6.78;;;;;;;5.43;100.00;101186.66;5094733;27;20359;-73
2022/12/28 02:52:18;;;;;;;20.33;7.35;;;;;;;5.40;100.00;101171.72;5124598;27;20049;-72
2022/12/28 02:58:46;;;;;;;20.67;7.55;;;;;;;5.35;100.00;101164.56;5040460;28;20415;-73
2022/12/28 03:01:23;;;;;;;20.60;7.88;;;;;;;5.31;100.00;101167.94;5041653;28;20083;-72
2022/12/28 03:04:06;;;;;;;20.45;7.78;;;;;;;5.33;100.00;101166.22;5108322;27;20118;-73
2022/12/28 03:09:27;;;;;;;20.88;8.60;;;;;;;5.33;100.00;101171.47;5125033;27;20460;-73
2022/12/28 03:12:03;;;;;;;21.70;8.70;;;;;;;5.38;100.00;101148.94;5127710;27;20106;-72
2022/12/28 03:14:42;;;;;;;21.90;8.15;;;;;;;5.38;100.00;101149.81;5102479;28;20034;-72
2022/12/28 03:31:13;;;;;;;21.67;9.02;;;;;;;5.45;100.00;101132.53;5123021;27;20088;-73
2022/12/28 03:33:43;;;;;;;23.63;10.20;;;;;;;5.45;100.00;101134.28;5107765;27;20034;-72
2022/12/28 03:36:26;;;;;;;22.35;9.32;;;;;;;5.49;100.00;101138.75;5125079;27;20035;-72
2022/12/28 03:39:05;;;;;;;22.60;10.13;;;;;;;5.44;100.00;101141.22;5124209;27;20027;-72
2022/12/28 03:41:38;;;;;;;21.60;9.65;;;;;;;5.54;100.00;101152.91;5120359;27;20082;-72
2022/12/28 03:44:09;;;;;;;21.42;9.48;;;;;;;5.48;100.00;101130.00;5091682;27;20381;-72
2022/12/28 03:46:51;;;;;;;21.98;9.57;;;;;;;5.52;100.00;101129.25;5124753;27;20393;-72
2022/12/28 03:49:17;;;;;;;21.80;10.32;;;;;;;5.58;100.00;101131.16;5106485;27;20034;-72
2022/12/28 03:51:46;;;;;;;23.65;9.77;;;;;;;5.58;100.00;101121.56;5125376;27;20035;-72
2022/12/28 03:54:16;;;;;;;21.88;9.80;;;;;;;5.62;100.00;101119.03;5125466;27;20023;-72
2022/12/28 03:56:49;;;;;;;22.30;9.93;;;;;;;5.65;100.00;101119.09;5106962;27;20019;-72
2022/12/28 03:59:16;;;;;;;23.40;11.02;;;;;;;5.66;100.00;101111.28;5124841;27;20110;-72
2022/12/28 04:01:42;;;;;;;23.20;10.18;;;;;;;5.62;100.00;101108.53;5124877;27;20039;-72
2022/12/28 04:04:07;;;;;;;22.30;10.10;;;;;;;5.69;100.00;101108.72;5107703;27;20024;-72
2022/12/28 04:06:33;;;;;;;23.55;9.13;;;;;;;5.75;100.00;101113.28;5123596;27;20035;-71
2022/12/28 04:08:58;;;;;;;22.60;9.80;;;;;;;5.78;100.00;101092.38;5126802;27;20114;-72
2022/12/28 04:11:24;;;;;;;21.83;9.45;;;;;;;5.82;100.00;101102.09;5123355;27;20031;-72
2022/12/28 04:13:49;;;;;;;21.80;9.02;;;;;;;5.88;100.00;101101.38;5125657;27;20181;-72
2022/12/28 04:16:14;;;;;;;21.85;9.23;;;;;;;5.88;100.00;101120.66;5124001;27;20120;-72
2022/12/28 04:18:40;;;;;;;22.73;9.48;;;;;;;5.96;100.00;101099.00;5124517;27;20066;-72
2022/12/28 04:21:07;;;;;;;22.02;9.40;;;;;;;5.96;100.00;101101.63;5125683;27;20076;-73
2022/12/28 04:23:33;;;;;;;22.25;8.88;;;;;;;6.00;100.00;101120.16;5123333;27;20058;-72
2022/12/28 04:26:07;;;;;;;21.17;9.02;;;;;;;5.97;100.00;101106.00;5126833;27;20436;-72
2022/12/28 04:28:34;;;;;;;22.08;9.48;;;;;;;6.03;100.00;101100.94;5119885;27;20066;-72
2022/12/28 04:31:01;;;;;;;21.38;8.90;;;;;;;6.00;100.00;101103.50;5126561;27;20039;-73
2022/12/28 04:33:27;;;;;;;21.13;8.68;;;;;;;6.05;100.00;101110.66;5118725;27;20023;-73
2022/12/28 04:35:53;;;;;;;20.63;8.68;;;;;;;6.10;100.00;101105.50;5125749;27;20042;-73
2022/12/28 04:38:19;;;;;;;23.48;9.25;;;;;;;6.12;100.00;101093.34;5123594;27;20030;-73
2022/12/28 04:40:45;;;;;;;22.10;9.57;;;;;;;6.09;100.00;101095.88;5124803;27;20032;-73
2022/12/28 04:43:10;;;;;;;20.58;8.30;;;;;;;6.13;100.00;101097.75;5106269;27;20027;-73
2022/12/28 04:45:36;;;;;;;21.92;9.20;;;;;;;6.08;100.00;101096.72;5123265;27;20069;-72
2022/12/28 04:48:01;;;;;;;21.70;9.05;;;;;;;6.16;100.00;101094.28;5126028;27;20031;-72
2022/12/28 04:50:27;;;;;;;22.08;9.50;;;;;;;6.06;100.00;101095.81;5122497;27;20462;-72
2022/12/28 04:52:53;;;;;;;22.67;9.52;;;;;;;6.11;100.00;101107.31;5125630;27;20039;-71
2022/12/28 04:55:19;;;;;;;22.48;9.40;;;;;;;6.12;100.00;101074.97;5123457;27;20030;-72
2022/12/28 04:57:45;;;;;;;21.05;9.90;;;;;;;6.15;100.00;101089.91;5124201;27;20056;-71
2022/12/28 05:00:12;;;;;;;22.60;9.48;;;;;;;6.22;100.00;101089.22;5124606;27;20027;-71
2022/12/28 05:02:37;;;;;;;20.92;9.20;;;;;;;6.23;100.00;101094.50;5123078;27;20020;-71
2022/12/28 05:05:03;;;;;;;22.08;9.52;;;;;;;6.21;100.00;101096.19;5125630;27;20524;-72
2022/12/28 05:07:28;;;;;;;21.48;9.25;;;;;;;6.26;100.00;101091.97;5122412;27;20019;-71
2022/12/28 05:09:54;;;;;;;21.38;9.23;;;;;;;6.24;100.00;101088.41;5125215;27;20114;-72
2022/12/28 05:12:20;;;;;;;22.30;9.77;;;;;;;6.26;100.00;101081.47;5104597;27;20019;-72
2022/12/28 05:14:46;;;;;;;23.38;10.25;;;;;;;6.24;100.00;101080.53;5124162;27;20038;-71
2022/12/28 05:17:11;;;;;;;22.92;9.75;;;;;;;6.29;100.00;101083.25;5124032;27;20031;-72
2022/12/28 05:19:37;;;;;;;24.67;10.38;;;;;;;6.23;100.00;101070.88;5122796;27;20390;-72
2022/12/28 05:22:02;;;;;;;22.13;9.95;;;;;;;6.23;100.00;101078.75;5125446;27;20059;-72
2022/12/28 05:24:28;;;;;;;22.23;9.50;;;;;;;6.26;100.00;101081.47;5121861;27;20055;-72
2022/12/28 05:26:54;;;;;;;21.88;9.95;;;;;;;6.26;100.00;101084.09;5124956;27;20038;-72
2022/12/28 05:29:19;;;;;;;23.58;10.57;;;;;;;6.28;100.00;101071.00;5122013;27;20057;-72
2022/12/28 05:31:44;;;;;;;23.42;10.05;;;;;;;6.30;100.00;101078.91;5123906;27;20034;-71
2022/12/28 05:34:10;;;;;;;23.02;10.60;;;;;;;6.30;100.00;101071.91;5124110;27;20110;-73
2022/12/28 05:36:36;;;;;;;22.35;10.80;;;;;;;6.30;100.00;101082.41;5122402;27;20028;-73
2022/12/28 05:39:03;;;;;;;24.42;10.43;;;;;;;6.30;100.00;101078.91;5106726;27;20504;-72
2022/12/28 05:41:29;;;;;;;23.48;10.82;;;;;;;6.32;100.00;101079.81;5121675;27;20027;-72
2022/12/28 05:43:56;;;;;;;23.13;10.20;;;;;;;6.38;100.00;101082.63;5125100;27;20034;-73
2022/12/28 05:46:25;;;;;;;24.08;10.43;;;;;;;6.39;100.00;101084.38;5122426;27;20031;-73
2022/12/28 05:48:51;;;;;;;23.00;10.85;;;;;;;6.37;100.00;101086.09;5124580;27;20380;-73
2022/12/28 05:51:18;;;;;;;23.27;10.82;;;;;;;6.37;100.00;101079.09;5123072;28;20023;-73
2022/12/28 05:53:44;;;;;;;24.10;10.60;;;;;;;6.40;100.00;101080.91;5123179;28;20478;-73
2022/12/28 05:56:20;;;;;;;23.58;10.55;;;;;;;6.40;100.00;101067.78;5123907;28;20031;-73
2022/12/28 05:59:00;;;;;;;21.73;10.50;;;;;;;6.41;100.00;101070.44;5105324;28;20433;-72
2022/12/28 06:01:28;;;;;;;22.73;9.63;;;;;;;6.43;100.00;101046.84;5121800;28;20020;-71
2022/12/28 06:03:57;;;;;;;22.20;10.50;;;;;;;6.42;100.00;101060.81;5124571;28;20062;-70
2022/12/28 06:06:23;;;;;;;22.85;9.63;;;;;;;6.45;100.00;101058.28;5121930;28;20087;-72
2022/12/28 06:08:49;;;;;;;22.33;9.60;;;;;;;6.44;100.00;101052.13;5123981;28;20024;-72
2022/12/28 06:11:19;;;;;;;22.92;9.68;;;;;;;6.48;100.00;101049.59;5123027;28;20492;-72
2022/12/28 06:13:45;;;;;;;21.23;9.20;;;;;;;6.45;100.00;101048.69;5122953;28;20019;-69
2022/12/28 06:16:13;;;;;;;21.20;9.10;;;;;;;6.49;100.00;101054.00;5123873;28;20024;-72
2022/12/28 06:18:39;;;;;;;21.45;9.05;;;;;;;6.51;100.00;101036.53;5122249;28;20107;-70
2022/12/28 06:21:13;;;;;;;22.65;9.52;;;;;;;6.51;100.00;101044.41;5124331;28;20539;-72
2022/12/28 06:23:39;;;;;;;21.20;9.00;;;;;;;6.53;100.00;101029.59;5103937;28;20020;-71
2022/12/28 06:26:06;;;;;;;19.90;8.27;;;;;;;6.58;100.00;101031.47;5124502;28;20062;-71
2022/12/28 06:28:34;;;;;;;22.02;9.02;;;;;;;6.58;100.00;101028.84;5121199;28;20047;-70
2022/12/28 06:31:05;;;;;;;20.52;9.00;;;;;;;6.59;100.00;101027.09;5124678;28;20092;-71
2022/12/28 06:33:30;;;;;;;21.08;9.05;;;;;;;6.58;100.00;101027.94;5117522;28;20035;-71
2022/12/28 06:35:56;;;;;;;20.58;8.95;;;;;;;6.56;100.00;101011.28;5124400;28;20032;-72
2022/12/28 06:38:21;;;;;;;21.58;9.30;;;;;;;6.57;100.00;101015.69;5103683;28;20102;-71
2022/12/28 06:40:46;;;;;;;20.83;9.75;;;;;;;6.60;100.00;101011.38;5126499;27;20406;-71
2022/12/28 06:43:12;;;;;;;20.88;9.32;;;;;;;6.59;100.00;101022.72;5127256;27;20044;-71
2022/12/28 06:45:37;;;;;;;22.45;9.27;;;;;;;6.66;100.00;101021.13;5125799;27;20489;-72
2022/12/28 06:48:03;;;;;;;21.88;9.38;;;;;;;6.59;100.00;101017.47;5128877;27;20023;-70
2022/12/28 06:50:28;;;;;;;23.13;9.77;;;;;;;6.60;100.00;101006.13;5124753;27;20390;-73
2022/12/28 06:52:53;;;;;;;21.70;9.60;;;;;;;6.62;100.00;101008.78;5115883;27;20445;-76
2022/12/28 06:55:19;;;;;;;21.75;9.77;;;;;;;6.59;100.00;101009.59;5099402;27;20081;-72
2022/12/28 06:57:44;;;;;;;21.45;9.45;;;;;;;6.63;100.00;101016.69;5100648;27;20028;-71
2022/12/28 07:00:10;;;;;;;22.83;9.15;;;;;;;6.65;100.00;101024.59;5119624;27;20094;-73
2022/12/28 07:02:36;;;;;;;21.73;9.65;;;;;;;6.63;100.00;101006.19;5099269;28;20031;-73
2022/12/28 07:05:01;;;;;;;23.42;10.23;;;;;;;6.60;100.00;101006.13;5120259;27;20184;-72
2022/12/28 07:07:27;;;;;;;22.75;10.15;;;;;;;6.61;100.00;101007.91;5071122;27;20035;-72
2022/12/28 07:09:52;;;;;;;21.70;9.60;;;;;;;6.66;100.00;101012.38;5123180;27;20039;-72
2022/12/28 07:12:17;;;;;;;23.13;9.82;;;;;;;6.67;100.00;101003.63;5122247;27;20030;-73
2022/12/28 07:14:43;;;;;;;21.17;9.82;;;;;;;6.61;100.00;101005.28;5120141;27;20069;-73
2022/12/28 07:17:08;;;;;;;22.15;9.50;;;;;;;6.62;100.00;101011.41;5103072;27;20091;-76
2022/12/28 07:19:33;;;;;;;22.63;10.38;;;;;;;6.62;100.00;101004.41;5100973;27;20490;-73
2022/12/28 07:21:59;;;;;;;21.92;9.15;;;;;;;6.71;100.00;100997.59;5104132;28;20027;-77
2022/12/28 07:24:24;;;;;;;22.35;9.80;;;;;;;6.64;100.00;100999.22;5119761;27;20030;-74
2022/12/28 07:26:49;;;;;;;24.27;9.80;;;;;;;6.68;100.00;100998.41;5119006;27;20024;-75
2022/12/28 07:29:15;;;;;;;22.20;9.70;;;;;;;6.68;100.00;100997.53;5118769;27;20498;-74
2022/12/28 07:31:40;;;;;;;21.67;9.25;;;;;;;6.71;100.00;101008.97;5123398;27;20102;-74
2022/12/28 07:34:06;;;;;;;20.88;8.75;;;;;;;6.74;100.00;101016.97;5119746;27;20474;-74
2022/12/28 07:36:32;;;;;;;21.10;8.60;;;;;;;6.73;100.00;100998.53;5119367;27;20056;-77
2022/12/28 07:38:58;;;;;;;21.08;8.88;;;;;;;6.72;100.00;101005.50;5121341;27;20027;-73
2022/12/28 07:41:29;;;;;;;21.35;8.85;;;;;;;6.72;100.00;101004.63;5119468;27;20027;-71
2022/12/28 07:43:54;;;;;;;19.63;8.50;;;;;;;6.77;100.00;100993.38;5119597;27;20039;-76
2022/12/28 07:46:26;;;;;;;20.63;7.88;;;;;;;6.82;100.00;100996.09;5119017;27;20035;-75
2022/12/28 07:48:52;;;;;;;19.83;8.15;;;;;;;6.80;100.00;100997.78;5117674;27;20019;-74
2022/12/28 07:51:37;;;;;;;19.98;8.65;;;;;;;6.78;100.00;101007.38;5112505;27;20016;-73
2022/12/28 07:54:03;;;;;;;23.42;8.48;;;;;;;6.76;100.00;101012.63;5119357;27;20168;-73
2022/12/28 07:56:30;;;;;;;20.38;8.77;;;;;;;6.77;100.00;100998.63;5120890;27;20043;-73
2022/12/28 07:59:01;;;;;;;21.52;8.75;;;;;;;6.79;100.00;101001.28;5115256;27;20080;-74
2022/12/28 08:01:30;;;;;;;22.80;8.80;;;;;;;6.82;100.00;101008.38;5124242;27;20106;-74
2022/12/28 08:04:02;;;;;;;21.13;8.88;;;;;;;6.80;100.00;100995.16;5113796;27;20165;-72
2022/12/28 08:06:29;;;;;;;20.98;8.82;;;;;;;6.87;100.00;101025.09;5116482;27;20081;-72
2022/12/28 08:08:58;;;;;;;21.05;8.55;;;;;;;6.85;100.00;101006.69;5117615;27;20038;-72
2022/12/28 08:11:27;;;;;;;20.67;9.23;;;;;;;6.87;100.00;101004.06;5123212;27;20209;-71
2022/12/28 08:13:54;;;;;;;21.90;8.90;;;;;;;6.84;100.00;101004.88;5116974;27;20027;-71
2022/12/28 08:16:21;;;;;;;22.70;9.23;;;;;;;6.89;100.00;101019.03;5121791;27;20031;-73
2022/12/28 08:18:47;;;;;;;21.90;9.40;;;;;;;6.88;100.00;101000.59;5121276;27;20015;-72
2022/12/28 08:21:16;;;;;;;21.27;8.70;;;;;;;6.93;100.00;100999.84;5119918;27;20027;-74
2022/12/28 08:23:41;;;;;;;21.75;9.18;;;;;;;6.89;100.00;100989.25;5121903;27;20027;-74
2022/12/28 08:26:19;;;;;;;21.85;9.50;;;;;;;6.96;100.00;100991.13;5124243;27;20035;-72
2022/12/28 08:28:46;;;;;;;23.20;9.13;;;;;;;6.91;100.00;100990.16;5122460;27;20047;-73
2022/12/28 08:31:23;;;;;;;21.50;9.43;;;;;;;6.88;100.00;100998.84;5116598;27;20031;-73
2022/12/28 08:33:49;;;;;;;21.95;8.98;;;;;;;6.91;100.00;100991.03;5117006;27;20046;-72
2022/12/28 08:36:15;;;;;;;23.30;10.27;;;;;;;6.88;100.00;100995.34;5121374;27;20030;-76
2022/12/28 08:38:42;;;;;;;23.08;9.45;;;;;;;6.89;100.00;100997.13;5115895;27;20444;-72
2022/12/28 08:41:11;;;;;;;21.85;8.55;;;;;;;6.93;100.00;100998.94;5120078;27;20020;-73
2022/12/28 08:43:37;;;;;;;24.63;9.80;;;;;;;6.93;100.00;100991.97;5100867;27;20515;-71
2022/12/28 08:46:09;;;;;;;22.17;9.90;;;;;;;6.96;100.00;100993.75;5115241;27;20035;-73
2022/12/28 08:48:34;;;;;;;23.23;9.88;;;;;;;6.96;100.00;100980.59;5117096;27;20035;-74
2022/12/28 08:51:07;;;;;;;21.90;8.57;;;;;;;7.00;100.00;100987.72;5117055;27;20067;-72
2022/12/28 08:53:32;;;;;;;;;;;;;;;7.09;100.00;100995.81;5119365;27;20062;-72
2022/12/28 08:56:07;;;;;;;24.17;9.63;;;;;;;7.00;100.00;101003.47;5121119;27;19959;-72
2022/12/28 08:58:32;;;;;;;20.98;8.65;;;;;;;7.02;100.00;100982.47;5116412;27;20051;-72
2022/12/28 09:01:25;;;;;;;22.73;9.73;;;;;;;6.99;100.00;100991.22;5118761;27;20055;-71
2022/12/28 09:03:53;;;;;;;22.15;9.07;;;;;;;6.98;100.00;100992.06;5110533;27;20489;-72
2022/12/28 09:06:25;;;;;;;22.38;9.25;;;;;;;7.01;100.00;100999.13;5116608;27;20032;-75
2022/12/28 09:08:52;;;;;;;21.47;9.87;;;;;;;7.00;100.00;100973.69;5102267;27;20023;-75
2022/12/28 09:11:17;;;;;;;21.67;9.02;;;;;;;7.00;100.00;100992.97;5122200;27;20277;-73
2022/12/28 09:13:43;;;;;;;22.63;9.70;;;;;;;6.98;100.00;100990.31;5120574;27;20123;-73
2022/12/28 09:16:11;;;;;;;22.25;9.55;;;;;;;7.06;100.00;101001.00;5123277;27;20054;-74
2022/12/28 09:18:38;;;;;;;22.75;9.50;;;;;;;7.06;100.00;101000.09;5124685;27;20023;-74
2022/12/28 09:21:15;;;;;;;22.63;8.50;;;;;;;7.04;100.00;100993.94;5122699;27;20089;-72
2022/12/28 09:23:42;;;;;;;22.20;9.27;;;;;;;7.05;100.00;100977.28;5123887;27;20054;-75
2022/12/28 09:26:18;;;;;;;20.90;9.18;;;;;;;7.05;100.00;101001.84;5122987;27;20032;-71
2022/12/28 09:28:46;;;;;;;21.48;8.40;;;;;;;7.09;100.00;100994.91;5114245;27;20469;-72
2022/12/28 09:31:11;;;;;;;22.48;8.30;;;;;;;7.10;100.00;100986.19;5123684;27;20042;-72
2022/12/28 09:36:21;;;;;;;20.20;7.75;;;;;;;7.14;100.00;100991.53;5125034;27;20394;-72
2022/12/28 09:38:48;;;;;;;20.50;7.53;;;;;;;7.10;100.00;100981.78;5123336;27;20023;-72
2022/12/28 09:41:24;;;;;;;20.08;7.63;;;;;;;7.19;100.00;101017.03;5123581;27;20024;-72
2022/12/28 09:44:11;;;;;;;19.95;7.15;;;;;;;7.17;100.00;100997.72;5122616;27;20028;-72
2022/12/28 09:46:40;;;;;;;19.45;6.68;;;;;;;7.17;100.00;101008.22;5120035;28;20038;-72
2022/12/28 09:49:13;;;;;;;19.90;7.00;;;;;;;7.16;100.00;100986.28;5124262;27;20148;-73
2022/12/28 09:51:48;;;;;;;19.85;6.72;;;;;;;7.20;100.00;100992.53;5123259;28;20080;-72
2022/12/28 09:54:13;;;;;;;18.48;6.30;;;;;;;7.19;100.00;100985.47;5123206;27;20027;-73
2022/12/28 09:56:41;;;;;;;21.40;6.82;;;;;;;7.17;100.00;100982.81;5122828;28;20047;-72
2022/12/28 09:59:14;;;;;;;20.05;6.45;;;;;;;7.18;100.00;100973.19;5123917;27;20015;-72
2022/12/28 10:01:41;;;;;;;19.02;6.28;;;;;;;7.22;100.00;100988.16;5123042;28;20027;-72
2022/12/28 10:04:07;;;;;;;18.85;5.93;;;;;;;7.23;100.00;100982.94;5124092;28;20034;-72
2022/12/28 10:06:35;;;;;;;18.08;6.10;;;;;;;7.21;100.00;100984.66;5121745;28;20016;-72
2022/12/28 10:09:03;;;;;;;18.77;6.60;;;;;;;7.21;100.00;100984.66;5118195;27;20034;-80
2022/12/28 10:11:38;;;;;;;17.35;5.75;;;;;;;7.23;100.00;100985.56;5114720;28;20034;-74
2022/12/28 10:14:18;;;;;;;17.40;6.00;;;;;;;7.22;100.00;100986.41;5116793;27;20139;-74
2022/12/28 10:16:43;;;;;;;17.58;5.70;;;;;;;7.25;100.00;100981.25;5117795;27;20111;-73
2022/12/28 10:19:18;;;;;;;16.90;5.72;;;;;;;7.26;100.00;100975.09;5117366;27;20173;-73
2022/12/28 10:21:45;;;;;;;17.67;5.78;;;;;;;7.26;100.00;100971.59;5116858;27;20547;-74
2022/12/28 10:24:12;;;;;;;18.23;6.18;;;;;;;7.29;100.00;100979.53;5117203;27;20045;-74
2022/12/28 10:26:40;;;;;;;17.23;5.63;;;;;;;7.29;100.00;100969.03;5116047;27;20042;-72
2022/12/28 10:29:15;;;;;;;17.30;5.65;;;;;;;7.29;100.00;100972.53;5117009;27;20490;-73
2022/12/28 10:31:42;;;;;;;18.98;5.97;;;;;;;7.31;100.00;100965.56;5096124;28;20035;-75
2022/12/28 10:34:16;;;;;;;16.92;5.68;;;;;;;7.36;100.00;100967.41;5118850;27;20118;-78
2022/12/28 10:36:42;;;;;;;18.33;6.50;;;;;;;7.29;100.00;100972.53;5104706;27;20078;-74
2022/12/28 10:39:16;;;;;;;18.98;5.90;;;;;;;7.33;100.00;100963.84;5098648;28;20529;-79
2022/12/28 10:41:44;;;;;;;18.55;6.18;;;;;;;7.35;100.00;100963.00;5114615;27;20073;-72
2022/12/28 10:44:30;;;;;;;18.08;6.00;;;;;;;7.45;100.00;100954.44;5097635;27;20044;-69
2022/12/28 10:47:00;;;;;;;18.15;6.28;;;;;;;7.37;100.00;100966.53;5123460;27;20355;-69
2022/12/28 10:49:30;;;;;;;17.85;5.97;;;;;;;7.38;100.00;100957.81;5117870;27;20108;-71
2022/12/28 10:52:18;;;;;;;18.73;6.38;;;;;;;7.36;100.00;100949.88;5121067;27;20023;-72
2022/12/28 10:54:43;;;;;;;17.92;6.35;;;;;;;7.38;100.00;100957.81;5120524;27;20038;-72
2022/12/28 10:57:26;;;;;;;18.65;6.90;;;;;;;7.41;100.00;100955.22;5120913;27;20040;-72
2022/12/28 10:59:52;;;;;;;18.73;6.88;;;;;;;7.36;100.00;100939.38;5121512;27;20020;-71
2022/12/28 11:02:23;;;;;;;20.58;7.03;;;;;;;7.37;100.00;100949.03;5121925;27;20497;-71
2022/12/28 11:04:56;;;;;;;18.80;7.18;;;;;;;7.44;100.00;100952.66;5122379;27;20038;-71
2022/12/28 11:07:40;;;;;;;19.58;7.20;;;;;;;7.48;100.00;100951.84;5120997;27;20041;-71
2022/12/28 11:10:29;;;;;;;19.33;7.03;;;;;;;7.44;100.00;100945.66;5099769;27;20023;-74
2022/12/28 11:12:57;;;;;;;20.27;7.30;;;;;;;7.37;100.00;100933.25;5098394;27;20070;-74
2022/12/28 11:15:26;;;;;;;19.95;6.68;;;;;;;7.40;100.00;100932.44;5113245;28;20110;-70
2022/12/28 11:18:00;;;;;;;19.40;6.75;;;;;;;7.40;100.00;100932.44;5114641;27;20106;-71
2022/12/28 11:20:33;;;;;;;20.00;6.47;;;;;;;7.41;100.00;100932.47;5117276;27;20019;-70
2022/12/28 11:23:00;;;;;;;19.50;6.40;;;;;;;7.37;100.00;100921.81;5118077;27;20555;-70
2022/12/28 11:25:34;;;;;;;19.55;6.93;;;;;;;7.41;100.00;100934.19;5113580;28;20040;-71
2022/12/28 11:28:04;;;;;;;18.58;6.63;;;;;;;7.45;100.00;100914.97;5122216;27;20036;-70
2022/12/28 11:30:30;;;;;;;18.13;6.22;;;;;;;7.44;100.00;100923.72;5119430;27;20027;-71
2022/12/28 11:33:01;;;;;;;19.55;6.88;;;;;;;7.42;100.00;100930.69;5119868;27;20053;-71
2022/12/28 11:35:38;;;;;;;18.05;6.20;;;;;;;7.42;100.00;100914.91;5108776;27;20031;-69
2022/12/28 11:38:06;;;;;;;19.70;6.35;;;;;;;7.40;100.00;100904.38;5125370;27;20023;-70
2022/12/28 11:40:43;;;;;;;19.77;6.90;;;;;;;7.43;100.00;100886.00;5126513;27;20110;-69
2022/12/28 11:43:27;;;;;;;20.65;7.05;;;;;;;7.38;100.00;100897.31;5125863;27;20028;-70
2022/12/28 11:45:54;;;;;;;20.25;7.10;;;;;;;7.40;100.00;100890.34;5120074;27;20032;-71
2022/12/28 11:48:53;;;;;;;19.45;7.18;;;;;;;7.44;100.00;100889.53;5119685;27;20020;-71
2022/12/28 11:51:26;;;;;;;19.92;6.70;;;;;;;7.38;100.00;100878.91;5127503;27;20019;-71
2022/12/28 11:53:52;;;;;;;18.50;6.40;;;;;;;7.39;100.00;100888.56;5119645;27;20106;-71
2022/12/28 11:56:19;;;;;;;19.90;6.93;;;;;;;7.37;100.00;100885.91;5127051;27;20568;-72